createdAt,value
2018-02-18T00:01:01.423Z,78.84
2018-02-18T00:03:28.954Z,78.26
2018-02-18T00:05:56.496Z,78.46
2018-02-18T00:08:24.113Z,78.35
2018-02-18T00:10:51.602Z,78.09
2018-02-18T00:13:19.126Z,77.86
2018-02-18T00:15:46.647Z,78.04
2018-02-18T00:18:14.177Z,77.86
2018-02-18T00:20:41.695Z,77.84
2018-02-18T00:23:09.216Z,78.04
2018-02-18T00:25:36.738Z,78.11
2018-02-18T00:28:04.259Z,77.98
2018-02-18T00:30:31.780Z,78.25
2018-02-18T00:32:59.367Z,78.72
2018-02-18T00:35:26.884Z,78.95
2018-02-18T00:37:54.445Z,79.05
2018-02-18T00:40:21.963Z,78.84
2018-02-18T00:42:49.481Z,78.46
2018-02-18T00:45:17.053Z,78.30
2018-02-18T00:47:44.593Z,78.36
2018-02-18T00:50:12.124Z,78.62
2018-02-18T00:52:39.701Z,78.82
2018-02-18T00:55:07.225Z,78.67
2018-02-18T00:57:34.751Z,78.28
2018-02-18T01:00:02.284Z,78.69
2018-02-18T01:02:29.837Z,78.50
2018-02-18T01:04:57.434Z,78.53
2018-02-18T01:07:24.969Z,78.57
2018-02-18T01:09:52.553Z,78.81
2018-02-18T01:12:20.078Z,78.91
2018-02-18T01:14:47.672Z,78.90
2018-02-18T01:17:15.239Z,78.66
2018-02-18T01:19:42.766Z,78.63
2018-02-18T01:22:10.301Z,79.23
2018-02-18T01:24:37.808Z,78.84
2018-02-18T01:27:05.329Z,79.14
2018-02-18T01:29:32.859Z,78.97
2018-02-18T01:32:00.376Z,78.87
2018-02-18T01:34:27.958Z,78.95
2018-02-18T01:36:55.506Z,78.72
2018-02-18T01:39:23.035Z,78.92
2018-02-18T01:41:50.638Z,78.67
2018-02-18T01:44:18.169Z,78.69
2018-02-18T01:46:45.685Z,78.86
2018-02-18T01:49:13.314Z,79.07
2018-02-18T01:51:40.881Z,78.76
2018-02-18T01:54:08.436Z,78.89
2018-02-18T01:56:35.958Z,78.78
2018-02-18T01:59:03.480Z,78.82
2018-02-18T02:01:31.118Z,79.25
2018-02-18T02:03:58.668Z,79.25
2018-02-18T02:06:26.194Z,79.20
2018-02-18T02:08:53.728Z,79.21
2018-02-18T02:11:21.347Z,79.32
2018-02-18T02:13:48.862Z,79.09
2018-02-18T02:16:16.380Z,79.33
2018-02-18T02:18:43.901Z,78.86
2018-02-18T02:21:11.426Z,78.79
2018-02-18T02:23:39.040Z,78.68
2018-02-18T02:26:06.605Z,78.75
2018-02-18T02:28:34.133Z,78.61
2018-02-18T02:31:01.726Z,78.37
2018-02-18T02:33:29.253Z,78.39
2018-02-18T02:35:56.848Z,78.33
2018-02-18T02:38:24.385Z,78.47
2018-02-18T02:40:51.965Z,78.36
2018-02-18T02:43:19.496Z,77.89
2018-02-18T02:45:47.023Z,78.00
2018-02-18T02:48:14.623Z,77.94
2018-02-18T02:50:42.133Z,77.58
2018-02-18T02:53:09.669Z,77.16
2018-02-18T02:55:37.185Z,76.97
2018-02-18T02:58:04.785Z,77.40
2018-02-18T03:00:32.312Z,77.21
2018-02-18T03:02:59.841Z,77.38
2018-02-18T03:05:27.348Z,76.91
2018-02-18T03:07:54.882Z,77.06
2018-02-18T03:10:22.418Z,76.99
2018-02-18T03:12:49.933Z,76.79
2018-02-18T03:15:17.496Z,77.01
2018-02-18T03:17:45.061Z,77.32
2018-02-18T03:20:12.618Z,77.12
2018-02-18T03:22:40.181Z,77.26
2018-02-18T03:25:07.688Z,77.20
2018-02-18T03:27:35.207Z,77.13
2018-02-18T03:30:02.737Z,76.92
2018-02-18T03:32:30.260Z,77.02
2018-02-18T03:34:57.772Z,77.17
2018-02-18T03:37:25.279Z,77.06
2018-02-18T03:39:52.784Z,77.19
2018-02-18T03:42:20.301Z,77.30
2018-02-18T03:44:47.844Z,77.19
2018-02-18T03:47:15.360Z,77.00
2018-02-18T03:49:42.929Z,76.92
2018-02-18T03:52:10.489Z,76.99
2018-02-18T03:54:38.017Z,76.99
2018-02-18T03:57:05.538Z,76.74
2018-02-18T03:59:33.052Z,76.87
2018-02-18T04:02:00.567Z,76.83
2018-02-18T04:04:28.185Z,77.03
2018-02-18T04:06:55.713Z,77.08
2018-02-18T04:09:23.253Z,77.20
2018-02-18T04:11:50.768Z,77.06
2018-02-18T04:14:18.281Z,76.90
2018-02-18T04:16:45.798Z,76.78
2018-02-18T04:19:13.312Z,76.65
2018-02-18T04:21:40.844Z,77.24
2018-02-18T04:24:08.468Z,77.80
2018-02-18T04:26:36.023Z,77.61
2018-02-18T04:29:03.585Z,77.62
2018-02-18T04:31:31.141Z,77.45
2018-02-18T04:33:58.653Z,77.44
2018-02-18T04:36:26.161Z,77.31
2018-02-18T04:38:53.721Z,77.53
2018-02-18T04:41:21.265Z,77.71
2018-02-18T04:43:48.840Z,77.70
2018-02-18T04:46:16.369Z,77.52
2018-02-18T04:48:43.897Z,77.55
2018-02-18T04:51:11.413Z,77.54
2018-02-18T04:53:38.921Z,77.25
2018-02-18T04:56:07.361Z,77.29
2018-02-18T04:58:34.930Z,77.09
2018-02-18T05:01:02.451Z,77.04
2018-02-18T05:03:29.996Z,77.31
2018-02-18T05:05:57.510Z,77.19
2018-02-18T05:08:25.058Z,77.35
2018-02-18T05:10:52.570Z,76.68
2018-02-18T05:13:20.176Z,76.60
2018-02-18T05:15:47.732Z,76.15
2018-02-18T05:18:15.261Z,76.08
2018-02-18T05:20:42.821Z,75.72
2018-02-18T05:23:10.336Z,75.65
2018-02-18T05:25:37.844Z,76.24
2018-02-18T05:28:05.396Z,76.36
2018-02-18T05:30:32.925Z,75.83
2018-02-18T05:33:00.550Z,75.40
2018-02-18T05:35:28.063Z,75.49
2018-02-18T05:37:55.582Z,76.32
2018-02-18T05:40:23.145Z,76.26
2018-02-18T05:42:50.661Z,76.33
2018-02-18T05:45:18.192Z,76.51
2018-02-18T05:47:45.813Z,76.51
2018-02-18T05:50:13.353Z,76.42
2018-02-18T05:52:40.885Z,76.65
2018-02-18T05:55:08.405Z,76.31
2018-02-18T05:57:35.920Z,76.26
2018-02-18T06:00:03.509Z,76.30
2018-02-18T06:02:31.022Z,76.16
2018-02-18T06:04:58.542Z,76.11
2018-02-18T06:07:26.070Z,76.39
2018-02-18T06:09:53.661Z,76.60
2018-02-18T06:12:21.173Z,76.07
2018-02-18T06:14:48.694Z,76.07
2018-02-18T06:17:16.214Z,75.99
2018-02-18T06:19:43.783Z,75.94
2018-02-18T06:22:11.308Z,76.35
2018-02-18T06:24:38.900Z,76.40
2018-02-18T06:27:06.465Z,76.26
2018-02-18T06:29:33.996Z,76.23
2018-02-18T06:32:01.522Z,76.23
2018-02-18T06:34:29.058Z,76.00
2018-02-18T06:36:56.578Z,75.98
2018-02-18T06:39:24.165Z,76.70
2018-02-18T06:41:51.721Z,75.85
2018-02-18T06:44:19.232Z,75.98
2018-02-18T06:46:46.745Z,76.50
2018-02-18T06:49:14.253Z,75.97
2018-02-18T06:51:41.860Z,75.48
2018-02-18T06:54:09.398Z,75.67
2018-02-18T06:56:36.923Z,73.27
2018-02-18T06:59:04.454Z,70.90
2018-02-18T07:01:31.967Z,70.52
2018-02-18T07:03:59.490Z,68.76
2018-02-18T07:06:27.002Z,68.05
2018-02-18T07:08:54.530Z,67.25
2018-02-18T07:11:22.051Z,68.52
2018-02-18T07:13:49.607Z,66.30
2018-02-18T07:16:17.148Z,66.76
2018-02-18T07:18:44.662Z,67.06
2018-02-18T07:21:12.172Z,67.85
2018-02-18T07:23:39.680Z,66.07
2018-02-18T07:26:07.272Z,65.96
2018-02-18T07:28:34.856Z,65.88
2018-02-18T07:31:02.415Z,65.79
2018-02-18T07:33:29.923Z,66.62
2018-02-18T07:35:57.547Z,66.29
2018-02-18T07:38:25.068Z,64.73
2018-02-18T07:40:52.648Z,65.56
2018-02-18T07:43:20.157Z,64.71
2018-02-18T07:45:47.673Z,65.39
2018-02-18T07:48:15.255Z,66.08
2018-02-18T07:50:42.908Z,64.50
2018-02-18T07:53:10.419Z,63.86
2018-02-18T07:55:38.008Z,63.98
2018-02-18T07:58:05.573Z,64.32
2018-02-18T08:00:33.135Z,63.22
2018-02-18T08:03:00.641Z,63.36
2018-02-18T08:05:28.159Z,63.48
2018-02-18T08:07:55.689Z,62.94
2018-02-18T08:10:23.247Z,63.46
2018-02-18T08:12:50.794Z,63.61
2018-02-18T08:15:18.307Z,63.98
2018-02-18T08:17:45.821Z,62.63
2018-02-18T08:20:13.405Z,64.48
2018-02-18T08:22:40.911Z,63.65
2018-02-18T08:25:08.540Z,64.67
2018-02-18T08:27:36.093Z,64.37
2018-02-18T08:30:03.622Z,62.50
2018-02-18T08:32:31.160Z,61.90
2018-02-18T08:34:58.688Z,62.39
2018-02-18T08:37:26.202Z,62.63
2018-02-18T08:39:53.786Z,61.33
2018-02-18T08:42:21.297Z,62.52
2018-02-18T08:44:48.806Z,61.20
2018-02-18T08:47:16.310Z,61.68
2018-02-18T08:49:43.822Z,62.29
2018-02-18T08:52:11.333Z,63.66
2018-02-18T08:54:38.859Z,62.88
2018-02-18T08:57:06.377Z,62.90
2018-02-18T08:59:33.885Z,62.48
2018-02-18T09:02:01.416Z,62.60
2018-02-18T09:04:29.006Z,61.86
2018-02-18T09:06:56.524Z,62.69
2018-02-18T09:09:24.045Z,61.66
2018-02-18T09:11:51.661Z,61.63
2018-02-18T09:14:19.170Z,62.23
2018-02-18T09:16:46.791Z,61.13
2018-02-18T09:19:14.302Z,60.80
2018-02-18T09:21:41.826Z,61.15
2018-02-18T09:24:09.333Z,61.11
2018-02-18T09:26:36.854Z,61.22
2018-02-18T09:29:04.363Z,61.04
2018-02-18T09:31:31.897Z,59.77
2018-02-18T09:33:59.406Z,60.11
2018-02-18T09:36:26.916Z,60.53
2018-02-18T09:38:54.554Z,60.51
2018-02-18T09:41:22.064Z,60.56
2018-02-18T09:43:49.573Z,60.29
2018-02-18T09:46:17.086Z,60.16
2018-02-18T09:48:44.771Z,60.00
2018-02-18T09:51:12.300Z,60.23
2018-02-18T09:53:39.881Z,59.63
2018-02-18T09:56:07.394Z,60.70
2018-02-18T09:58:34.929Z,60.35
2018-02-18T10:01:02.438Z,60.21
2018-02-18T10:03:33.832Z,60.92
2018-02-18T10:06:01.341Z,60.00
2018-02-18T10:08:28.850Z,59.87
2018-02-18T10:10:56.360Z,59.59
2018-02-18T10:13:23.868Z,59.31
2018-02-18T10:15:51.368Z,59.17
2018-02-18T10:18:18.869Z,59.57
2018-02-18T10:20:46.388Z,60.24
2018-02-18T10:23:13.905Z,59.30
2018-02-18T10:25:41.412Z,59.70
2018-02-18T10:28:08.916Z,59.98
2018-02-18T10:30:36.424Z,59.60
2018-02-18T10:33:03.933Z,59.13
2018-02-18T10:35:31.447Z,58.94
2018-02-18T10:37:58.961Z,58.71
2018-02-18T10:40:26.464Z,58.68
2018-02-18T10:42:53.977Z,58.80
2018-02-18T10:45:21.486Z,58.20
2018-02-18T10:47:48.997Z,57.60
2018-02-18T10:50:16.503Z,57.38
2018-02-18T10:52:44.025Z,58.13
2018-02-18T10:55:11.533Z,57.46
2018-02-18T10:57:39.040Z,57.83
2018-02-18T11:00:06.549Z,57.42
2018-02-18T11:02:34.052Z,58.00
2018-02-18T11:05:01.591Z,57.58
2018-02-18T11:07:29.122Z,57.32
2018-02-18T11:09:56.644Z,56.97
2018-02-18T11:12:24.158Z,56.80
2018-02-18T11:14:51.668Z,57.45
2018-02-18T11:17:19.188Z,57.08
2018-02-18T11:19:46.699Z,56.41
2018-02-18T11:22:14.205Z,56.41
2018-02-18T11:24:41.710Z,56.44
2018-02-18T11:27:09.224Z,57.59
2018-02-18T11:29:36.745Z,56.48
2018-02-18T11:32:04.258Z,57.35
2018-02-18T11:34:31.765Z,56.59
2018-02-18T11:36:59.276Z,56.66
2018-02-18T11:39:26.811Z,56.91
2018-02-18T11:41:54.337Z,57.61
2018-02-18T11:44:21.915Z,57.15
2018-02-18T11:46:49.421Z,56.83
2018-02-18T11:49:16.944Z,57.42
2018-02-18T11:51:44.458Z,55.82
2018-02-18T11:54:11.972Z,56.60
2018-02-18T11:56:39.492Z,57.57
2018-02-18T11:59:07.004Z,57.98
2018-02-18T12:01:34.513Z,57.09
2018-02-18T12:04:02.034Z,58.13
2018-02-18T12:06:29.541Z,56.96
2018-02-18T12:08:57.047Z,57.88
2018-02-18T12:11:24.560Z,57.80
2018-02-18T12:13:52.060Z,58.70
2018-02-18T12:16:19.592Z,58.83
2018-02-18T12:18:47.104Z,59.37
2018-02-18T12:21:14.630Z,58.91
2018-02-18T12:23:42.137Z,58.97
2018-02-18T12:26:09.657Z,59.57
2018-02-18T12:28:37.180Z,59.61
2018-02-18T12:31:04.702Z,58.51
2018-02-18T12:33:32.217Z,57.89
2018-02-18T12:35:59.732Z,59.17
2018-02-18T12:38:27.278Z,59.69
2018-02-18T12:40:54.797Z,59.67
2018-02-18T12:43:22.305Z,60.22
2018-02-18T12:45:49.818Z,60.68
2018-02-18T12:48:17.321Z,59.54
2018-02-18T12:50:44.825Z,59.40
2018-02-18T12:53:12.336Z,59.23
2018-02-18T12:55:39.864Z,59.86
2018-02-18T12:58:07.413Z,59.74
2018-02-18T13:00:34.928Z,60.00
2018-02-18T13:03:02.438Z,59.38
2018-02-18T13:05:29.962Z,59.71
2018-02-18T13:07:57.476Z,60.59
2018-02-18T13:10:25.006Z,59.71
2018-02-18T13:12:52.526Z,59.82
2018-02-18T13:15:20.034Z,60.94
2018-02-18T13:17:47.606Z,60.27
2018-02-18T13:20:15.120Z,60.79
2018-02-18T13:22:42.699Z,60.32
2018-02-18T13:25:10.212Z,59.59
2018-02-18T13:27:37.729Z,60.25
2018-02-18T13:30:05.252Z,60.04
2018-02-18T13:32:32.814Z,59.93
2018-02-18T13:35:00.495Z,60.70
2018-02-18T13:37:28.049Z,60.22
2018-02-18T13:39:55.575Z,59.47
2018-02-18T13:42:23.205Z,60.30
2018-02-18T13:44:50.745Z,59.90
2018-02-18T13:47:18.248Z,59.90
2018-02-18T13:49:45.760Z,60.38
2018-02-18T13:52:13.264Z,60.38
2018-02-18T13:54:40.821Z,59.64
2018-02-18T13:57:08.347Z,60.24
2018-02-18T13:59:35.856Z,58.54
2018-02-18T14:02:03.371Z,59.31
2018-02-18T14:04:30.991Z,58.20
2018-02-18T14:06:58.522Z,58.18
2018-02-18T14:09:26.116Z,58.46
2018-02-18T14:11:53.678Z,58.40
2018-02-18T14:14:21.202Z,58.43
2018-02-18T14:16:48.717Z,57.31
2018-02-18T14:19:16.250Z,56.64
2018-02-18T14:21:43.766Z,57.26
2018-02-18T14:24:11.284Z,56.68
2018-02-18T14:26:38.788Z,56.29
2018-02-18T14:29:06.304Z,58.24
2018-02-18T14:31:33.833Z,57.24
2018-02-18T14:34:01.357Z,56.68
2018-02-18T14:36:28.900Z,55.25
2018-02-18T14:38:56.446Z,55.73
2018-02-18T14:41:35.728Z,55.46
2018-02-18T14:44:15.210Z,55.86
2018-02-18T14:46:54.745Z,56.53
2018-02-18T14:49:34.181Z,56.17
2018-02-18T14:52:13.602Z,56.38
2018-02-18T14:57:44.340Z,55.77
2018-02-18T15:00:11.848Z,55.57
2018-02-18T15:02:39.353Z,55.32
2018-02-18T15:05:06.879Z,56.27
2018-02-18T15:07:34.409Z,55.97
2018-02-18T15:10:01.973Z,56.49
2018-02-18T15:12:29.492Z,55.98
2018-02-18T15:14:57.013Z,56.05
2018-02-18T16:39:21.492Z,58.81
2018-02-18T16:41:49.003Z,58.12
2018-02-18T16:44:16.506Z,58.98
2018-02-18T16:46:44.116Z,58.68
2018-02-18T16:49:11.622Z,59.63
2018-02-18T16:51:39.125Z,59.31
2018-02-18T16:54:06.636Z,59.15
2018-02-18T16:56:34.144Z,59.38
2018-02-18T16:59:01.683Z,58.66
2018-02-18T17:01:29.189Z,58.95
2018-02-18T17:03:56.733Z,58.32
2018-02-18T17:06:24.245Z,57.89
2018-02-18T17:08:51.792Z,58.37
2018-02-18T17:11:19.292Z,58.40
2018-02-18T17:13:46.872Z,59.22
2018-02-18T17:16:14.376Z,58.47
2018-02-18T17:18:41.893Z,58.55
2018-02-18T17:21:09.400Z,59.53
2018-02-18T17:23:36.905Z,59.36
2018-02-18T17:26:04.416Z,59.60
2018-02-18T17:28:31.937Z,59.47
2018-02-18T17:30:59.454Z,58.61
2018-02-18T17:33:26.985Z,59.38
2018-02-18T17:35:54.609Z,59.05
2018-02-18T17:38:22.114Z,59.86
2018-02-18T17:40:49.621Z,60.35
2018-02-18T17:43:17.124Z,60.09
2018-02-18T17:45:44.754Z,60.08
2018-02-18T17:48:12.272Z,59.80
2018-02-18T17:50:39.864Z,59.33
2018-02-18T17:53:07.372Z,59.49
2018-02-18T17:55:34.882Z,59.74
2018-02-18T17:58:02.397Z,59.34
2018-02-18T18:00:30.002Z,59.91
2018-02-18T18:02:57.563Z,59.38
2018-02-18T18:05:25.075Z,59.65
2018-02-18T18:07:52.580Z,59.79
2018-02-18T18:10:20.152Z,60.07
2018-02-18T18:12:47.667Z,59.89
2018-02-18T18:15:15.182Z,59.89
2018-02-18T18:17:42.693Z,59.64
2018-02-18T18:20:10.196Z,59.60
2018-02-18T18:22:37.729Z,59.48
2018-02-18T18:25:05.240Z,60.02
2018-02-18T18:27:32.852Z,60.24
2018-02-18T18:30:00.391Z,59.93
2018-02-18T18:32:27.943Z,60.30
2018-02-18T18:34:55.446Z,60.54
2018-02-18T18:37:22.957Z,59.90
2018-02-18T18:39:50.475Z,60.81
2018-02-18T18:42:17.981Z,60.99
2018-02-18T18:44:45.571Z,60.07
2018-02-18T18:47:13.096Z,60.70
2018-02-18T18:49:40.608Z,60.69
2018-02-18T18:52:08.134Z,60.90
2018-02-18T18:54:36.596Z,60.57
2018-02-18T18:57:04.103Z,60.72
2018-02-18T18:59:32.532Z,60.63
2018-02-18T19:02:00.050Z,61.38
2018-02-18T19:04:27.624Z,61.11
2018-02-18T19:06:55.141Z,60.85
2018-02-18T19:09:22.653Z,61.56
2018-02-18T19:11:50.173Z,61.59
2018-02-18T19:14:17.701Z,61.72
2018-02-18T19:16:45.209Z,61.26
2018-02-18T19:19:12.761Z,61.82
2018-02-18T19:21:40.316Z,61.43
2018-02-18T19:24:07.862Z,62.17
2018-02-18T19:26:35.371Z,61.57
2018-02-18T19:29:02.981Z,61.35
2018-02-18T19:31:30.492Z,61.73
2018-02-18T19:33:58.011Z,61.91
2018-02-18T19:36:25.576Z,62.24
2018-02-18T19:38:53.099Z,62.05
2018-02-18T19:41:21.548Z,61.92
2018-02-18T19:43:49.068Z,62.00
2018-02-18T19:46:16.583Z,61.74
2018-02-18T19:48:44.101Z,62.21
2018-02-18T19:51:11.619Z,61.76
2018-02-18T19:53:39.137Z,61.92
2018-02-18T19:56:06.656Z,61.34
2018-02-18T19:58:34.160Z,60.96
2018-02-18T20:01:01.674Z,61.57
2018-02-18T20:03:29.233Z,61.37
2018-02-18T20:05:56.792Z,60.69
2018-02-18T20:08:24.353Z,61.06
2018-02-18T20:10:51.873Z,60.82
2018-02-18T20:13:19.419Z,60.91
2018-02-18T20:15:46.914Z,61.45
2018-02-18T20:18:14.449Z,61.85
2018-02-18T20:20:41.964Z,61.04
2018-02-18T20:23:09.480Z,61.43
2018-02-18T20:25:37.028Z,61.48
2018-02-18T20:28:04.590Z,60.97
2018-02-18T20:30:32.098Z,60.81
2018-02-18T20:32:59.614Z,61.18
2018-02-18T20:35:27.164Z,61.60
2018-02-18T20:37:54.747Z,61.76
2018-02-18T20:40:22.289Z,61.94
2018-02-18T20:42:49.839Z,61.43
2018-02-18T20:45:17.462Z,61.93
2018-02-18T20:47:44.972Z,61.89
2018-02-18T20:50:12.491Z,62.34
2018-02-18T20:52:40.002Z,61.67
2018-02-18T20:55:07.548Z,62.34
2018-02-18T20:57:35.059Z,62.22
2018-02-18T21:00:02.579Z,62.32
2018-02-18T21:02:30.088Z,62.47
2018-02-18T21:04:57.599Z,62.79
2018-02-18T21:07:25.105Z,62.76
2018-02-18T21:09:52.618Z,63.02
2018-02-18T21:12:20.154Z,62.70
2018-02-18T21:14:47.674Z,62.97
2018-02-18T21:17:15.182Z,63.54
2018-02-18T21:19:42.693Z,63.02
2018-02-18T21:22:10.192Z,63.40
2018-02-18T21:24:37.724Z,63.02
2018-02-18T21:27:05.235Z,63.24
2018-02-18T21:29:32.753Z,63.01
2018-02-18T21:32:00.279Z,63.21
2018-02-18T21:34:27.837Z,63.33
2018-02-18T21:36:55.341Z,63.26
2018-02-18T21:39:22.841Z,62.56
2018-02-18T21:41:50.354Z,62.63
2018-02-18T21:44:17.873Z,62.97
2018-02-18T21:46:45.387Z,62.82
2018-02-18T21:49:12.917Z,62.78
2018-02-18T21:51:40.445Z,62.92
2018-02-18T21:54:07.954Z,63.02
2018-02-18T21:56:35.473Z,63.03
2018-02-18T21:59:02.985Z,63.00
2018-02-18T22:01:30.493Z,63.08
2018-02-18T22:03:58.002Z,62.92
2018-02-18T22:06:25.509Z,62.82
2018-02-18T22:08:53.022Z,63.32
2018-02-18T22:11:20.533Z,63.05
2018-02-18T22:13:48.041Z,63.18
2018-02-18T22:16:15.568Z,63.34
2018-02-18T22:18:43.073Z,63.08
2018-02-18T22:21:10.586Z,63.31
2018-02-18T22:23:38.093Z,63.54
2018-02-18T22:26:05.609Z,63.87
2018-02-18T22:28:33.156Z,63.78
2018-02-18T22:31:00.660Z,63.61
2018-02-18T22:33:28.178Z,63.63
2018-02-18T22:35:55.714Z,63.79
2018-02-18T22:38:23.262Z,64.08
2018-02-18T22:40:50.774Z,63.78
2018-02-18T22:43:18.280Z,63.71
2018-02-18T22:45:45.801Z,63.85
2018-02-18T22:48:13.317Z,63.92
2018-02-18T22:50:40.844Z,63.74
2018-02-18T22:53:08.356Z,63.80
2018-02-18T22:55:35.872Z,63.83
2018-02-18T22:58:03.385Z,63.76
2018-02-18T23:00:30.894Z,63.66
2018-02-18T23:02:58.420Z,63.77
2018-02-18T23:05:31.443Z,63.92
2018-02-18T23:07:58.948Z,63.94
2018-02-18T23:10:26.478Z,63.87
2018-02-18T23:12:54.005Z,63.65
2018-02-18T23:15:21.535Z,63.89
2018-02-18T23:17:49.051Z,63.89
2018-02-18T23:20:16.560Z,64.13
2018-02-18T23:22:44.154Z,63.99
2018-02-18T23:25:11.681Z,64.11
2018-02-18T23:27:39.196Z,64.02
2018-02-18T23:30:06.705Z,64.28
2018-02-18T23:32:34.224Z,64.32
2018-02-18T23:35:01.735Z,64.41
2018-02-18T23:37:29.280Z,64.08
2018-02-18T23:39:56.871Z,64.17
2018-02-18T23:42:24.389Z,64.40
2018-02-18T23:44:51.998Z,64.26
2018-02-18T23:47:19.543Z,64.20
2018-02-18T23:49:47.053Z,64.37
2018-02-18T23:52:14.565Z,64.56
2018-02-18T23:54:42.082Z,64.72
2018-02-18T23:57:09.696Z,65.26
2018-02-18T23:59:37.228Z,64.68
